Energy Champion — MJUZ7 — position and weather

sailwx.info

Track history (hours):
 
Tides and Currents Weather Stations Pressure Air Temp Water Temp Dewpoint Dewpoint Depression Visibility Wind Speed Wind Dir Waves Ship Positions

Energy Champion

Last reported at 2016-Aug-17 10:29 UTC. Time now 2016-Aug-25 18:32 UTC.
Position N 40°25' W 073°47'.
Warning: this ship's position is 8 days out of date.

Length 228 m; draft 8 m.

Type: Ship. MMSI: 235009420.

Date/timePositionNaut miles runAvg speedWind from/ knotsBaromVisibWave heightAir tempDewpointWater temp
2016-Aug-17 10:29N 40°25' W 073°47'1010.4
2016-Aug-17 09:33N 40°29' W 073°58'12 5.2
2016-Aug-17 07:13N 40°34' W 074°13'4 0.1
2016-Aug-15 22:33N 40°38' W 074°12'6 5.8
2016-Aug-15 21:34N 40°39' W 074°05'2 2.0
2016-Aug-15 20:32N 40°37' W 074°03'0 0.1
2016-Aug-15 19:32N 40°37' W 074°03'0 0.3
2016-Aug-15 18:32N 40°37' W 074°03'0 0.0
2016-Aug-15 17:32N 40°37' W 074°03'0 0.0
2016-Aug-15 16:32N 40°37' W 074°03'0 0.0
2016-Aug-15 15:32N 40°37' W 074°03'0 0.0
2016-Aug-15 14:32N 40°37' W 074°03'0 0.0
2016-Aug-15 13:32N 40°37' W 074°03'0 0.1
2016-Aug-15 12:32N 40°37' W 074°04'0 0.3
2016-Aug-15 11:32N 40°37' W 074°03'0 0.0
2016-Aug-15 10:32N 40°37' W 074°03'0 0.0
2016-Aug-15 09:32N 40°37' W 074°03'0 0.0
2016-Aug-15 08:32N 40°37' W 074°03'0 0.3
2016-Aug-15 07:32N 40°37' W 074°03'0 0.0
2016-Aug-15 06:32N 40°37' W 074°03'0 0.0
2016-Aug-15 04:32N 40°37' W 074°03'0 0.1
2016-Aug-15 03:33N 40°37' W 074°03'2 2.1
2016-Aug-15 02:33N 40°35' W 074°02'7 7.0
2016-Aug-15 01:33N 40°30' W 073°56'  
Track history (hours):
 
Tides and Currents Weather Stations Pressure Air Temp Water Temp Dewpoint Dewpoint Depression Visibility Wind Speed Wind Dir Waves Ship Positions

Energy Champion

Last reported at 2016-Aug-17 10:29 UTC. Time now 2016-Aug-25 18:32 UTC.
Position N 40°25' W 073°47'.
Warning: this ship's position is 8 days out of date.

Length 228 m; draft 8 m.

Type: Ship. MMSI: 235009420.

Date/timePositionNaut miles runAvg speedWind from/ knotsBaromVisibWave heightAir tempDewpointWater temp
2016-Aug-17 10:29N 40°25' W 073°47'1010.4
2016-Aug-17 09:33N 40°29' W 073°58'12 5.2
2016-Aug-17 07:13N 40°34' W 074°13'4 0.1
2016-Aug-15 22:33N 40°38' W 074°12'6 5.8
2016-Aug-15 21:34N 40°39' W 074°05'2 2.0
2016-Aug-15 20:32N 40°37' W 074°03'0 0.1
2016-Aug-15 19:32N 40°37' W 074°03'0 0.3
2016-Aug-15 18:32N 40°37' W 074°03'0 0.0
2016-Aug-15 17:32N 40°37' W 074°03'0 0.0
2016-Aug-15 16:32N 40°37' W 074°03'0 0.0
2016-Aug-15 15:32N 40°37' W 074°03'0 0.0
2016-Aug-15 14:32N 40°37' W 074°03'0 0.0
2016-Aug-15 13:32N 40°37' W 074°03'0 0.1
2016-Aug-15 12:32N 40°37' W 074°04'0 0.3
2016-Aug-15 11:32N 40°37' W 074°03'0 0.0
2016-Aug-15 10:32N 40°37' W 074°03'0 0.0
2016-Aug-15 09:32N 40°37' W 074°03'0 0.0
2016-Aug-15 08:32N 40°37' W 074°03'0 0.3
2016-Aug-15 07:32N 40°37' W 074°03'0 0.0
2016-Aug-15 06:32N 40°37' W 074°03'0 0.0
2016-Aug-15 04:32N 40°37' W 074°03'0 0.1
2016-Aug-15 03:33N 40°37' W 074°03'2 2.1
2016-Aug-15 02:33N 40°35' W 074°02'7 7.0
2016-Aug-15 01:33N 40°30' W 073°56'  

Dump ship's entire track history